Time;durP1;ratioP1;P1;durP2;ratioP2;P2;SDS_P1;SDS_P2;PMS_P1;PMS_P2;Temp;Humidity;BMP_temperature;BMP_pressure;BME280_temperature;BME280_humidity;BME280_pressure;Samples;Min_cycle;Max_cycle;Signal;HPM_P1;HPM_P2
2023/04/16 00:01:25;;;;;;;14.35;2.60;;;;;;;7.70;100.00;102240.63;6129456;23;20019;-79
2023/04/16 00:03:51;;;;;;;8.50;2.53;;;;;;;7.69;100.00;102242.50;6103754;23;20109;-80
2023/04/16 00:06:18;;;;;;;5.05;2.50;;;;;;;7.72;100.00;102250.84;6102759;23;20061;-79
2023/04/16 00:08:44;;;;;;;5.40;2.50;;;;;;;7.73;100.00;102236.44;6103498;23;20066;-79
2023/04/16 00:11:11;;;;;;;5.68;2.33;;;;;;;7.73;100.00;102236.44;6103178;23;20527;-78
2023/04/16 00:13:38;;;;;;;6.32;2.63;;;;;;;7.73;100.00;102236.44;6102501;23;20025;-79
2023/04/16 00:16:04;;;;;;;10.40;2.63;;;;;;;7.73;100.00;102239.09;6129250;23;20019;-79
2023/04/16 00:18:31;;;;;;;6.43;2.42;;;;;;;7.72;100.00;102243.66;6129224;23;20146;-79
2023/04/16 00:20:58;;;;;;;5.55;2.22;;;;;;;7.72;100.00;102240.25;6129314;23;20023;-79
2023/04/16 00:23:25;;;;;;;4.05;2.20;;;;;;;7.74;100.00;102241.38;6129505;23;20014;-79
2023/04/16 00:25:52;;;;;;;8.57;2.10;;;;;;;7.74;100.00;102240.63;6103974;23;20520;-79
2023/04/16 00:28:19;;;;;;;4.80;2.53;;;;;;;7.73;100.00;102239.09;6128342;23;20330;-79
2023/04/16 00:30:45;;;;;;;5.80;2.05;;;;;;;7.72;100.00;102246.28;6103252;23;20480;-79
2023/04/16 00:33:12;;;;;;;6.25;2.35;;;;;;;7.70;100.00;102241.38;6129293;23;20015;-79
2023/04/16 00:35:38;;;;;;;3.38;1.88;;;;;;;7.69;100.00;102244.41;6103079;23;20018;-79
2023/04/16 00:38:05;;;;;;;2.78;1.90;;;;;;;7.67;100.00;102250.09;6103095;23;20022;-79
2023/04/16 00:40:32;;;;;;;5.35;2.17;;;;;;;7.68;100.00;102243.66;6129381;23;20022;-79
2023/04/16 00:42:59;;;;;;;3.78;2.22;;;;;;;7.68;100.00;102235.69;6078416;23;20018;-79
2023/04/16 00:45:25;;;;;;;4.10;2.10;;;;;;;7.68;100.00;102238.34;6129337;23;20018;-79
2023/04/16 00:47:52;;;;;;;10.80;2.60;;;;;;;7.67;100.00;102244.03;6129483;23;20029;-79
2023/04/16 00:50:19;;;;;;;7.22;2.47;;;;;;;7.67;100.00;102234.19;6128779;23;20018;-79
2023/04/16 00:52:47;;;;;;;6.28;2.42;;;;;;;7.66;100.00;102243.28;6129437;23;20033;-79
2023/04/16 00:55:16;;;;;;;5.35;2.55;;;;;;;7.65;100.00;102249.72;6103359;23;20021;-79
2023/04/16 00:57:43;;;;;;;8.07;2.90;;;;;;;7.66;100.00;102240.63;6102004;23;20027;-80
2023/04/16 01:00:11;;;;;;;10.05;2.95;;;;;;;7.66;100.00;102242.53;6103377;23;20071;-78
2023/04/16 01:02:38;;;;;;;5.25;2.75;;;;;;;7.66;100.00;102239.88;6128971;23;20065;-78
2023/04/16 01:05:05;;;;;;;9.98;2.72;;;;;;;7.66;100.00;102242.53;6078788;23;20429;-79
2023/04/16 01:07:32;;;;;;;6.93;3.05;;;;;;;7.65;100.00;102236.47;6102733;23;20400;-79
2023/04/16 01:09:58;;;;;;;3.05;2.80;;;;;;;7.66;100.00;102239.88;6129002;23;20026;-79
2023/04/16 01:12:25;;;;;;;8.13;3.60;;;;;;;7.66;100.00;102242.53;6077705;23;20029;-79
2023/04/16 01:14:51;;;;;;;9.35;3.00;;;;;;;7.67;100.00;102241.38;6103103;23;20022;-79
2023/04/16 01:17:18;;;;;;;6.72;2.80;;;;;;;7.66;100.00;102248.56;6102719;23;20104;-79
2023/04/16 01:19:45;;;;;;;5.45;3.17;;;;;;;7.67;100.00;102241.38;6129076;23;20089;-78
2023/04/16 01:22:11;;;;;;;11.85;3.58;;;;;;;7.65;100.00;102241.75;6128412;23;20080;-79
2023/04/16 01:24:39;;;;;;;7.45;3.17;;;;;;;7.65;100.00;102238.34;6102802;23;20019;-79
2023/04/16 01:27:08;;;;;;;5.05;3.20;;;;;;;7.66;100.00;102234.56;6102363;23;20022;-78
2023/04/16 01:29:35;;;;;;;4.18;2.78;;;;;;;7.66;100.00;102240.63;6102633;23;20078;-79
2023/04/16 01:32:02;;;;;;;7.30;3.58;;;;;;;7.66;100.00;102237.97;6102748;23;20023;-79
2023/04/16 01:34:34;;;;;;;6.45;3.60;;;;;;;7.66;100.00;102239.88;6102719;23;20333;-79
2023/04/16 01:37:02;;;;;;;10.95;3.83;;;;;;;7.65;100.00;102249.72;6102473;23;20033;-79
2023/04/16 01:39:29;;;;;;;10.65;3.70;;;;;;;7.65;100.00;102257.66;6128379;23;20014;-78
2023/04/16 01:41:56;;;;;;;5.80;3.70;;;;;;;7.66;100.00;102247.81;6102465;23;20093;-78
2023/04/16 01:44:23;;;;;;;6.85;3.42;;;;;;;7.66;100.00;102256.53;6102762;23;20018;-81
2023/04/16 01:46:49;;;;;;;8.60;3.75;;;;;;;7.65;100.00;102255.00;6102899;23;20032;-80
2023/04/16 01:49:16;;;;;;;11.45;3.60;;;;;;;7.65;100.00;102248.97;6128886;23;20018;-79
2023/04/16 01:51:42;;;;;;;8.93;3.72;;;;;;;7.64;100.00;102253.50;6102698;23;20030;-80
2023/04/16 01:54:09;;;;;;;9.38;4.38;;;;;;;7.66;100.00;102250.47;6127943;23;20074;-79
2023/04/16 01:56:35;;;;;;;9.18;4.18;;;;;;;7.65;100.00;102254.25;6102424;23;20022;-79
2023/04/16 01:59:02;;;;;;;6.78;4.05;;;;;;;7.66;100.00;102259.19;6102443;23;20019;-80
2023/04/16 02:01:35;;;;;;;9.93;4.47;;;;;;;7.66;100.00;102256.53;6102699;23;20106;-78
2023/04/16 02:04:02;;;;;;;8.85;4.50;;;;;;;7.66;100.00;102256.53;6102507;23;20070;-80
2023/04/16 02:06:30;;;;;;;9.45;4.70;;;;;;;7.67;100.00;102258.03;6128570;23;20056;-80
2023/04/16 02:08:56;;;;;;;12.35;4.90;;;;;;;7.68;100.00;102256.16;6127977;23;20046;-80
2023/04/16 02:11:25;;;;;;;11.30;5.57;;;;;;;7.69;100.00;102258.41;6102345;23;20022;-80
2023/04/16 02:13:52;;;;;;;15.10;5.43;;;;;;;7.70;100.00;102251.22;6102843;23;20884;-80
2023/04/16 02:16:19;;;;;;;14.93;5.32;;;;;;;7.70;100.00;102251.97;6078166;23;20033;-80
2023/04/16 02:18:51;;;;;;;11.30;5.65;;;;;;;7.72;100.00;102253.50;6102734;23;20444;-80
2023/04/16 02:21:20;;;;;;;9.48;5.72;;;;;;;7.72;100.00;102245.53;6128125;23;20015;-80
2023/04/16 02:23:50;;;;;;;13.88;6.13;;;;;;;7.72;100.00;102248.19;6102034;23;20030;-80
2023/04/16 02:26:20;;;;;;;7.75;6.00;;;;;;;7.74;100.00;102246.66;6101482;23;20026;-80
2023/04/16 02:28:47;;;;;;;13.73;6.47;;;;;;;7.75;100.00;102252.72;6102916;23;20048;-80
2023/04/16 02:31:18;;;;;;;9.73;5.75;;;;;;;7.75;100.00;102242.13;6102078;23;20029;-80
2023/04/16 02:33:46;;;;;;;13.75;6.47;;;;;;;7.76;100.00;102252.34;6103573;23;20117;-80
2023/04/16 02:36:12;;;;;;;8.70;6.10;;;;;;;7.77;100.00;102247.81;6129768;23;20023;-80
2023/04/16 02:38:39;;;;;;;12.00;6.32;;;;;;;7.77;100.00;102251.22;6103301;23;20074;-80
2023/04/16 02:41:06;;;;;;;18.80;6.53;;;;;;;7.77;100.00;102255.75;6079732;23;20073;-80
2023/04/16 02:43:33;;;;;;;11.50;6.18;;;;;;;7.77;100.00;102251.22;6103374;23;20049;-77
2023/04/16 02:46:00;;;;;;;18.70;6.25;;;;;;;7.78;100.00;102250.06;6079653;23;20023;-78
2023/04/16 02:48:27;;;;;;;12.55;6.22;;;;;;;7.79;100.00;102251.59;6129588;23;20014;-78
2023/04/16 02:50:53;;;;;;;17.23;6.07;;;;;;;7.80;100.00;102257.66;6103861;23;20338;-80
2023/04/16 02:53:20;;;;;;;13.10;6.72;;;;;;;7.80;100.00;102260.28;6102811;23;20015;-80
2023/04/16 02:55:54;;;;;;;12.18;6.95;;;;;;;7.81;100.00;102253.84;6079805;23;20022;-80
2023/04/16 02:58:23;;;;;;;16.65;6.78;;;;;;;7.81;100.00;102254.59;6098331;23;20381;-80
2023/04/16 03:00:50;;;;;;;10.52;6.82;;;;;;;7.81;100.00;102264.47;6075033;23;20019;-80
2023/04/16 03:03:17;;;;;;;13.63;6.82;;;;;;;7.80;100.00;102258.41;6074129;23;20449;-80
2023/04/16 03:05:44;;;;;;;15.65;7.25;;;;;;;7.80;100.00;102263.69;6099169;23;20058;-80
2023/04/16 03:08:10;;;;;;;14.02;7.25;;;;;;;7.81;100.00;102259.16;6099846;23;20015;-80
2023/04/16 03:10:37;;;;;;;17.02;7.35;;;;;;;7.80;100.00;102263.69;6100434;23;20015;-80
2023/04/16 03:13:04;;;;;;;15.48;7.18;;;;;;;7.79;100.00;102266.72;6100117;23;20087;-80
2023/04/16 03:15:30;;;;;;;14.50;7.45;;;;;;;7.80;100.00;102258.41;6100561;23;20019;-80
2023/04/16 03:17:57;;;;;;;17.48;8.40;;;;;;;7.81;100.00;102267.09;6100574;23;20019;-80
2023/04/16 03:20:24;;;;;;;16.25;8.27;;;;;;;7.80;100.00;102269.00;6100261;23;20532;-78
2023/04/16 03:22:51;;;;;;;19.55;8.13;;;;;;;7.80;100.00;102276.19;6097936;23;20090;-80
2023/04/16 03:25:18;;;;;;;21.02;7.88;;;;;;;7.80;100.00;102270.91;6098244;23;20122;-80
2023/04/16 03:27:45;;;;;;;13.88;7.78;;;;;;;7.80;100.00;102279.59;6100566;23;20015;-80
2023/04/16 03:30:13;;;;;;;14.18;7.07;;;;;;;7.81;100.00;102275.06;6098407;23;20015;-80
2023/04/16 03:32:40;;;;;;;21.20;7.65;;;;;;;7.81;100.00;102277.72;6098473;23;20031;-80
2023/04/16 03:35:07;;;;;;;14.60;7.32;;;;;;;7.82;100.00;102279.22;6100275;23;20103;-80
2023/04/16 03:37:36;;;;;;;12.90;7.22;;;;;;;7.81;100.00;102283.03;6097765;23;20646;-79
2023/04/16 03:40:04;;;;;;;15.90;6.95;;;;;;;7.81;100.00;102277.72;6100159;23;20050;-79
2023/04/16 03:42:31;;;;;;;15.77;7.10;;;;;;;7.81;100.00;102272.41;6100256;23;20019;-80
2023/04/16 03:44:58;;;;;;;17.50;7.05;;;;;;;7.83;100.00;102278.09;6073977;23;20023;-79
2023/04/16 03:47:25;;;;;;;15.80;7.25;;;;;;;7.83;100.00;102280.75;6098417;23;20091;-79
2023/04/16 03:49:55;;;;;;;14.20;6.82;;;;;;;7.81;100.00;102289.06;6098143;23;20015;-79
2023/04/16 03:52:21;;;;;;;18.25;7.68;;;;;;;7.82;100.00;102287.19;6098243;23;20027;-79
2023/04/16 03:54:48;;;;;;;15.13;6.80;;;;;;;7.82;100.00;102284.53;6098883;23;20075;-80
2023/04/16 03:57:24;;;;;;;11.93;7.28;;;;;;;7.82;100.00;102282.63;6098347;23;20019;-79
2023/04/16 03:59:55;;;;;;;15.25;7.93;;;;;;;7.82;100.00;102282.63;6098787;23;20025;-79
2023/04/16 04:02:23;;;;;;;13.95;7.78;;;;;;;7.81;100.00;102280.38;6098053;23;20043;-79
2023/04/16 04:04:50;;;;;;;14.82;8.35;;;;;;;7.81;100.00;102286.44;6098052;23;20031;-80
2023/04/16 04:07:16;;;;;;;15.98;7.95;;;;;;;7.81;100.00;102283.78;6097885;23;20038;-79
2023/04/16 04:09:43;;;;;;;19.02;8.70;;;;;;;7.81;100.00;102289.06;6100536;23;20015;-79
2023/04/16 04:12:10;;;;;;;12.25;8.23;;;;;;;7.81;100.00;102281.13;6097955;23;20029;-80
2023/04/16 04:14:39;;;;;;;19.67;8.80;;;;;;;7.81;100.00;102283.78;6098176;23;20034;-79
2023/04/16 04:17:07;;;;;;;17.15;8.75;;;;;;;7.81;100.00;102286.44;6097994;23;20023;-79
2023/04/16 04:19:34;;;;;;;21.63;8.25;;;;;;;7.81;100.00;102294.38;6097844;23;20019;-79
2023/04/16 04:22:02;;;;;;;23.23;10.00;;;;;;;7.81;100.00;102290.97;6097843;23;20098;-80
2023/04/16 04:24:28;;;;;;;24.10;9.35;;;;;;;7.80;100.00;102284.91;6098008;23;20029;-80
2023/04/16 04:26:56;;;;;;;15.27;8.23;;;;;;;7.83;100.00;102291.34;6097913;23;20114;-80
2023/04/16 04:29:26;;;;;;;25.08;8.60;;;;;;;7.82;100.00;102287.19;6098387;23;20030;-80
2023/04/16 04:31:54;;;;;;;21.63;8.77;;;;;;;7.82;100.00;102292.47;6098324;23;20026;-80
2023/04/16 04:34:21;;;;;;;15.45;7.88;;;;;;;7.81;100.00;102293.63;6097490;23;20592;-80
2023/04/16 04:36:48;;;;;;;12.77;7.97;;;;;;;7.81;100.00;102301.56;6098760;23;20206;-80
2023/04/16 04:39:15;;;;;;;18.85;8.00;;;;;;;7.80;100.00;102294.75;6098308;23;20042;-80
2023/04/16 04:41:42;;;;;;;15.90;7.50;;;;;;;7.79;100.00;102306.50;6098523;23;20023;-79
2023/04/16 04:44:08;;;;;;;21.13;8.43;;;;;;;7.79;100.00;102306.50;6097960;23;20105;-79
2023/04/16 04:46:35;;;;;;;20.90;7.65;;;;;;;7.78;100.00;102308.41;6098167;23;20055;-79
2023/04/16 04:49:02;;;;;;;15.60;7.60;;;;;;;7.78;100.00;102320.91;6097458;23;20401;-79
2023/04/16 04:51:30;;;;;;;18.73;8.00;;;;;;;7.76;100.00;102323.16;6097957;23;20417;-80
2023/04/16 04:53:57;;;;;;;16.35;7.63;;;;;;;7.75;100.00;102322.41;6097899;23;20030;-79
2023/04/16 04:56:23;;;;;;;23.13;7.75;;;;;;;7.75;100.00;102316.34;6097908;23;20082;-79
2023/04/16 04:58:50;;;;;;;17.90;7.70;;;;;;;7.75;100.00;102321.66;6098193;23;20066;-79
2023/04/16 05:01:18;;;;;;;19.90;7.50;;;;;;;7.77;100.00;102316.72;6097678;23;20075;-79
2023/04/16 05:03:45;;;;;;;17.55;7.72;;;;;;;7.76;100.00;102317.88;6099645;23;20091;-79
2023/04/16 05:06:11;;;;;;;18.83;7.95;;;;;;;7.75;100.00;102317.09;6098265;23;20049;-80
2023/04/16 05:08:38;;;;;;;20.58;8.65;;;;;;;7.77;100.00;102319.38;6098221;23;20023;-79
2023/04/16 05:11:04;;;;;;;26.02;8.00;;;;;;;7.74;100.00;102326.19;6100162;23;20014;-79
2023/04/16 05:13:31;;;;;;;16.55;7.50;;;;;;;7.76;100.00;102320.53;6099436;23;20030;-79
2023/04/16 05:15:58;;;;;;;20.98;8.35;;;;;;;7.76;100.00;102315.22;6097914;23;20019;-79
2023/04/16 05:18:25;;;;;;;14.93;8.18;;;;;;;7.77;100.00;102327.34;6097444;23;20022;-80
2023/04/16 05:20:52;;;;;;;15.82;7.82;;;;;;;7.77;100.00;102325.44;6098340;23;20050;-79
2023/04/16 05:23:18;;;;;;;23.67;7.82;;;;;;;7.78;100.00;102318.25;6097513;23;20023;-79
2023/04/16 05:25:45;;;;;;;17.13;8.43;;;;;;;7.79;100.00;102325.06;6097932;23;20019;-80
2023/04/16 05:28:11;;;;;;;15.13;7.75;;;;;;;7.78;100.00;102326.94;6073508;23;20015;-80
2023/04/16 05:30:37;;;;;;;17.63;8.70;;;;;;;7.77;100.00;102325.44;6099122;23;20038;-80
2023/04/16 05:33:04;;;;;;;18.83;8.43;;;;;;;7.77;100.00;102322.03;6098603;23;20033;-79
2023/04/16 05:35:31;;;;;;;19.00;8.30;;;;;;;7.79;100.00;102322.41;6099594;23;20368;-80
2023/04/16 05:37:57;;;;;;;17.10;8.27;;;;;;;7.80;100.00;102329.22;6097986;23;20015;-80
2023/04/16 05:40:24;;;;;;;17.38;8.15;;;;;;;7.80;100.00;102323.91;6099473;23;20019;-80
2023/04/16 05:42:50;;;;;;;20.63;8.85;;;;;;;7.81;100.00;102336.03;6099728;23;20497;-80
2023/04/16 05:45:17;;;;;;;22.42;8.45;;;;;;;7.81;100.00;102336.81;6099200;23;20019;-80
2023/04/16 05:47:43;;;;;;;16.58;8.50;;;;;;;7.82;100.00;102337.56;6099262;23;20011;-80
2023/04/16 05:50:10;;;;;;;26.50;9.27;;;;;;;7.81;100.00;102336.81;6099218;23;20888;-79
2023/04/16 05:52:37;;;;;;;18.23;8.55;;;;;;;7.82;100.00;102333.00;6097519;23;20571;-80
2023/04/16 05:55:04;;;;;;;24.40;8.45;;;;;;;7.84;100.00;102343.25;6097625;23;20023;-80
2023/04/16 05:57:32;;;;;;;17.23;8.13;;;;;;;7.84;100.00;102345.88;6110341;23;20058;-80
2023/04/16 05:59:58;;;;;;;20.30;8.90;;;;;;;7.84;100.00;102345.88;6102632;23;20093;-79
2023/04/16 06:02:25;;;;;;;19.35;8.60;;;;;;;7.85;100.00;102350.06;6127730;23;20022;-79
2023/04/16 06:04:51;;;;;;;15.13;7.60;;;;;;;7.87;100.00;102347.78;6102539;23;20018;-79
2023/04/16 06:07:18;;;;;;;18.27;8.55;;;;;;;7.87;100.00;102347.78;6128781;23;20110;-80
2023/04/16 06:09:44;;;;;;;23.85;9.05;;;;;;;7.89;100.00;102348.91;6130856;23;20468;-80
2023/04/16 06:12:11;;;;;;;16.15;8.52;;;;;;;7.88;100.00;102355.34;6129849;23;20026;-79
2023/04/16 06:14:37;;;;;;;18.50;8.63;;;;;;;7.88;100.00;102349.28;6129867;23;20022;-79
2023/04/16 06:17:04;;;;;;;20.15;8.45;;;;;;;7.91;100.00;102353.84;6128712;23;20105;-78
2023/04/16 06:19:30;;;;;;;18.77;8.40;;;;;;;7.91;100.00;102353.84;6129509;23;20883;-78
2023/04/16 06:21:57;;;;;;;19.25;8.77;;;;;;;7.93;100.00;102359.50;6129598;23;20030;-79
2023/04/16 06:24:23;;;;;;;20.25;9.20;;;;;;;7.96;100.00;102366.72;6104339;23;20014;-78
2023/04/16 06:26:50;;;;;;;21.77;9.60;;;;;;;7.96;100.00;102370.13;6130870;23;20010;-78
2023/04/16 06:29:16;;;;;;;29.55;9.88;;;;;;;7.96;100.00;102367.47;6130318;23;20464;-78
2023/04/16 06:31:43;;;;;;;21.75;9.55;;;;;;;7.97;100.00;102374.28;6130262;23;20112;-80
2023/04/16 06:34:10;;;;;;;20.83;9.57;;;;;;;7.96;100.00;102372.00;6104505;23;20046;-80
2023/04/16 06:36:36;;;;;;;21.40;9.80;;;;;;;7.99;100.00;102377.31;6104482;23;20405;-79
2023/04/16 06:39:03;;;;;;;20.85;9.90;;;;;;;7.98;100.00;102380.34;6130345;23;20014;-81
2023/04/16 06:41:29;;;;;;;19.73;9.60;;;;;;;8.01;100.00;102376.91;6130663;23;20539;-79
2023/04/16 06:43:56;;;;;;;19.65;9.88;;;;;;;8.01;100.00;102379.56;6129863;23;20019;-79
2023/04/16 06:46:22;;;;;;;17.02;9.70;;;;;;;8.01;100.00;102382.22;6105212;23;20500;-80
2023/04/16 06:48:49;;;;;;;16.98;9.95;;;;;;;8.02;100.00;102381.84;6130853;23;20097;-78
2023/04/16 06:51:16;;;;;;;21.23;10.18;;;;;;;8.05;100.00;102380.31;6130405;23;20019;-77
2023/04/16 06:53:42;;;;;;;19.17;10.10;;;;;;;8.06;100.00;102379.19;6105055;23;20023;-79
2023/04/16 06:56:09;;;;;;;23.13;10.55;;;;;;;8.08;100.00;102384.09;6130221;23;20026;-77
2023/04/16 06:58:35;;;;;;;23.23;10.15;;;;;;;8.09;100.00;102382.97;6130083;23;20038;-79
2023/04/16 07:01:02;;;;;;;14.18;8.65;;;;;;;8.10;100.00;102390.53;6130423;23;20401;-80
2023/04/16 07:03:28;;;;;;;20.23;10.00;;;;;;;8.12;100.00;102400.75;6130711;23;20026;-79
2023/04/16 07:05:55;;;;;;;17.13;10.25;;;;;;;8.11;100.00;102397.34;6130706;23;20067;-80
2023/04/16 07:08:22;;;;;;;20.63;10.25;;;;;;;8.12;100.00;102411.38;6130665;23;20347;-80
2023/04/16 07:10:48;;;;;;;18.55;10.57;;;;;;;8.13;100.00;102400.38;6130718;23;20019;-79
2023/04/16 07:13:17;;;;;;;24.10;11.57;;;;;;;8.13;100.00;102400.38;6129932;23;20462;-79
2023/04/16 07:15:43;;;;;;;22.52;11.38;;;;;;;8.17;100.00;102408.34;6130920;23;20081;-79
2023/04/16 07:18:10;;;;;;;23.90;12.10;;;;;;;8.16;100.00;102404.94;6130309;23;20476;-81
2023/04/16 07:20:36;;;;;;;23.30;12.10;;;;;;;8.18;100.00;102407.19;6130783;23;20031;-80
2023/04/16 07:23:03;;;;;;;21.98;11.88;;;;;;;8.17;100.00;102411.75;6130409;23;20086;-80
2023/04/16 07:25:29;;;;;;;17.02;10.68;;;;;;;8.19;100.00;102414.78;6104476;23;20380;-81
2023/04/16 07:27:56;;;;;;;21.00;11.32;;;;;;;8.20;100.00;102413.66;6129901;23;20042;-80
2023/04/16 07:30:22;;;;;;;20.13;10.70;;;;;;;8.23;100.00;102412.88;6130991;23;20022;-80
2023/04/16 07:32:50;;;;;;;16.17;9.68;;;;;;;8.23;100.00;102415.53;6130519;23;20069;-80
2023/04/16 07:35:16;;;;;;;15.57;10.05;;;;;;;8.23;100.00;102417.44;6130361;23;20051;-80
2023/04/16 07:37:43;;;;;;;15.30;8.80;;;;;;;8.26;100.00;102419.31;6130440;23;20022;-80
2023/04/16 07:40:10;;;;;;;19.08;10.13;;;;;;;8.29;100.00;102424.63;6130072;23;20409;-79
2023/04/16 07:42:37;;;;;;;15.73;9.38;;;;;;;8.29;100.00;102427.28;6130089;23;20015;-79
2023/04/16 07:45:04;;;;;;;18.35;10.30;;;;;;;8.31;100.00;102437.50;6130327;23;20053;-79
2023/04/16 07:47:31;;;;;;;15.10;9.38;;;;;;;8.32;100.00;102446.97;6130680;23;20015;-79
2023/04/16 07:49:58;;;;;;;16.73;9.32;;;;;;;8.32;100.00;102439.81;6130140;23;20056;-81
2023/04/16 07:52:25;;;;;;;15.20;9.30;;;;;;;8.35;100.00;102432.97;6104438;23;20114;-80
2023/04/16 07:54:52;;;;;;;17.98;9.13;;;;;;;8.37;100.00;102441.31;6130505;23;20010;-80
2023/04/16 07:57:18;;;;;;;20.70;9.70;;;;;;;8.38;100.00;102448.13;6129021;23;20025;-79
2023/04/16 07:59:45;;;;;;;13.70;9.05;;;;;;;8.40;100.00;102450.41;6130562;23;20078;-79
2023/04/16 08:02:13;;;;;;;18.48;9.57;;;;;;;8.44;100.00;102446.59;6130251;23;20019;-80
2023/04/16 08:04:41;;;;;;;18.23;9.27;;;;;;;8.48;100.00;102447.34;6130479;23;20410;-80
2023/04/16 08:07:08;;;;;;;15.93;8.93;;;;;;;8.49;100.00;102448.09;6129961;23;20349;-80
2023/04/16 08:09:35;;;;;;;13.45;9.15;;;;;;;8.49;100.00;102453.41;6128991;23;20461;-80
2023/04/16 08:12:02;;;;;;;16.15;8.50;;;;;;;8.50;100.00;102452.25;6103301;23;20093;-80
2023/04/16 08:14:29;;;;;;;12.75;8.10;;;;;;;8.53;100.00;102459.47;6130325;23;20425;-80
2023/04/16 08:16:56;;;;;;;15.45;8.13;;;;;;;8.55;100.00;102454.53;6103767;23;20057;-80
2023/04/16 08:19:22;;;;;;;10.32;7.53;;;;;;;8.57;100.00;102462.88;6104031;23;20081;-81
2023/04/16 08:21:49;;;;;;;13.40;8.07;;;;;;;8.60;100.00;102462.09;6130121;23;20015;-82
2023/04/16 08:24:16;;;;;;;12.13;7.43;;;;;;;8.60;100.00;102470.81;6130099;23;20057;-80
2023/04/16 08:26:42;;;;;;;9.15;6.88;;;;;;;8.60;100.00;102480.69;6129932;23;20022;-79
2023/04/16 08:29:09;;;;;;;12.30;7.10;;;;;;;8.60;100.00;102476.13;6130016;23;20023;-80
2023/04/16 08:31:35;;;;;;;10.88;7.13;;;;;;;8.63;100.00;102479.94;6129871;23;20014;-80
2023/04/16 08:34:02;;;;;;;9.50;6.70;;;;;;;8.67;100.00;102480.69;6129737;23;20074;-79
2023/04/16 08:36:28;;;;;;;9.20;6.88;;;;;;;8.68;100.00;102482.94;6130212;23;20034;-80
2023/04/16 08:38:55;;;;;;;9.75;6.88;;;;;;;8.71;100.00;102484.06;6130096;23;20050;-80
2023/04/16 08:41:23;;;;;;;9.75;6.60;;;;;;;8.73;100.00;102484.44;6129622;23;20488;-80
2023/04/16 08:43:54;;;;;;;7.95;6.72;;;;;;;8.75;100.00;102484.06;6130272;23;20034;-80
2023/04/16 08:46:25;;;;;;;8.57;6.60;;;;;;;8.76;100.00;102483.69;6130317;23;20464;-79
2023/04/16 08:48:57;;;;;;;8.35;5.78;;;;;;;8.78;100.00;102485.97;6130263;23;20081;-79
2023/04/16 08:51:27;;;;;;;9.38;6.13;;;;;;;8.80;100.00;102481.75;6130149;23;20448;-77
2023/04/16 08:54:01;;;;;;;12.00;5.53;;;;;;;8.81;100.00;102495.78;6130101;23;20022;-81
2023/04/16 08:56:30;;;;;;;7.85;5.80;;;;;;;8.81;100.00;102480.59;6129806;23;20070;-78
2023/04/16 08:58:57;;;;;;;8.73;5.25;;;;;;;8.88;100.00;102482.50;6129542;23;20058;-82
2023/04/16 09:01:25;;;;;;;6.28;5.38;;;;;;;8.93;100.00;102493.47;6130143;23;20014;-79
2023/04/16 09:03:52;;;;;;;7.70;5.85;;;;;;;8.99;100.00;102493.84;6129913;23;20437;-78
2023/04/16 09:06:19;;;;;;;9.40;5.80;;;;;;;9.05;100.00;102491.53;6129650;23;20019;-78
2023/04/16 09:08:46;;;;;;;6.30;5.10;;;;;;;9.09;100.00;102492.28;6130004;23;20023;-79
2023/04/16 09:11:16;;;;;;;6.40;5.53;;;;;;;9.12;100.00;102494.94;6129042;23;20015;-80
2023/04/16 09:13:44;;;;;;;6.25;5.40;;;;;;;9.14;100.00;102497.19;6129528;23;20029;-81
2023/04/16 09:16:12;;;;;;;7.97;5.72;;;;;;;9.13;100.00;102498.34;6129788;23;20014;-79
2023/04/16 09:18:40;;;;;;;8.85;5.10;;;;;;;9.18;100.00;102504.03;6129968;23;20082;-79
2023/04/16 09:21:09;;;;;;;10.68;5.15;;;;;;;9.25;100.00;102503.97;6129636;23;20019;-78
2023/04/16 09:23:40;;;;;;;7.93;5.28;;;;;;;9.31;100.00;102502.41;6129134;23;20516;-83
2023/04/16 09:26:06;;;;;;;5.65;5.10;;;;;;;9.35;100.00;102505.06;6129721;23;20475;-79
2023/04/16 09:28:47;;;;;;;5.45;5.00;;;;;;;9.40;100.00;102498.59;6130028;23;20023;-81
2023/04/16 09:31:15;;;;;;;7.33;6.57;;;;;;;9.42;100.00;102505.03;6129233;23;20069;-79
2023/04/16 09:33:59;;;;;;;6.47;5.15;;;;;;;9.44;100.00;102507.28;6078413;23;20018;-80
2023/04/16 09:36:26;;;;;;;5.78;5.07;;;;;;;9.44;100.00;102513.38;6129762;23;20022;-79
2023/04/16 09:38:53;;;;;;;10.30;6.03;;;;;;;9.40;99.82;102520.59;6103343;23;20062;-80
2023/04/16 09:41:28;;;;;;;8.45;6.00;;;;;;;9.42;99.97;102517.56;6129719;23;20464;-80
2023/04/16 09:43:58;;;;;;;6.75;5.68;;;;;;;9.45;99.80;102524.75;6130855;23;20071;-80
2023/04/16 09:46:42;;;;;;;10.00;6.00;;;;;;;9.47;99.54;102523.22;6104894;23;20448;-80
2023/04/16 09:49:16;;;;;;;13.02;6.10;;;;;;;9.53;99.23;102526.25;6130510;23;20025;-80
2023/04/16 09:51:49;;;;;;;7.43;5.68;;;;;;;9.54;99.19;102525.84;6130892;23;20018;-79
2023/04/16 09:54:16;;;;;;;7.50;5.60;;;;;;;9.53;98.64;102532.31;6130030;23;20090;-80
2023/04/16 09:56:44;;;;;;;7.38;6.03;;;;;;;9.53;98.57;102529.66;6130495;23;20518;-79
2023/04/16 09:59:18;;;;;;;7.93;6.25;;;;;;;9.54;98.60;102536.50;6130252;23;20453;-81
2023/04/16 10:01:53;;;;;;;8.88;6.00;;;;;;;9.54;98.21;102536.50;6130837;23;20018;-78
2023/04/16 10:04:50;;;;;;;7.50;5.30;;;;;;;9.58;98.56;102542.53;6130898;23;20463;-79
2023/04/16 10:07:18;;;;;;;7.68;6.25;;;;;;;9.62;98.55;102537.94;6103956;23;20053;-79
2023/04/16 10:09:47;;;;;;;7.25;6.07;;;;;;;9.63;98.06;102544.78;6104392;23;20468;-79
2023/04/16 10:12:14;;;;;;;10.27;6.32;;;;;;;9.65;98.01;102536.41;6130470;23;20019;-79
2023/04/16 10:14:41;;;;;;;9.23;6.47;;;;;;;9.62;97.86;102535.28;6130917;23;20018;-81
2023/04/16 10:17:08;;;;;;;13.15;6.88;;;;;;;9.62;97.85;102542.50;6130407;23;20042;-79
2023/04/16 10:19:35;;;;;;;11.27;7.43;;;;;;;9.64;98.01;102550.84;6130823;23;20500;-77
2023/04/16 10:22:03;;;;;;;15.93;7.93;;;;;;;9.70;97.82;102534.09;6129926;23;20020;-78
2023/04/16 10:24:31;;;;;;;11.77;8.48;;;;;;;9.80;97.43;102540.50;6130751;23;20053;-79
2023/04/16 10:26:58;;;;;;;14.60;8.52;;;;;;;9.83;96.89;102536.31;6130340;23;20019;-81
2023/04/16 10:29:27;;;;;;;11.57;7.82;;;;;;;9.82;96.59;102545.44;6130586;23;20104;-81
2023/04/16 10:31:55;;;;;;;14.40;8.45;;;;;;;9.84;96.74;102543.13;6130716;23;20093;-79
2023/04/16 10:34:23;;;;;;;13.30;8.15;;;;;;;9.85;96.49;102544.66;6130533;23;20053;-82
2023/04/16 10:36:51;;;;;;;18.55;8.40;;;;;;;9.89;96.71;102545.38;6129989;23;20022;-79
2023/04/16 10:39:21;;;;;;;17.63;9.23;;;;;;;9.97;96.63;102544.97;6130366;23;20445;-80
2023/04/16 10:41:48;;;;;;;13.15;8.23;;;;;;;9.98;96.38;102545.72;6104841;23;20015;-81
2023/04/16 10:44:17;;;;;;;15.05;8.32;;;;;;;9.99;96.38;102544.56;6104137;23;20022;-80
2023/04/16 10:46:49;;;;;;;14.23;8.25;;;;;;;10.03;96.64;102553.25;6104079;23;20401;-81
2023/04/16 10:49:22;;;;;;;15.80;8.40;;;;;;;10.05;95.96;102550.97;6130450;23;20128;-81
2023/04/16 10:51:58;;;;;;;12.00;8.52;;;;;;;10.07;95.93;102551.31;6130470;23;20046;-81
2023/04/16 10:54:27;;;;;;;16.58;9.20;;;;;;;10.08;96.04;102558.16;6104795;23;20049;-79
2023/04/16 10:57:01;;;;;;;15.55;8.65;;;;;;;10.03;95.49;102542.59;6130204;23;20115;-80
2023/04/16 10:59:33;;;;;;;12.63;9.07;;;;;;;10.01;95.74;102552.88;6130756;23;20077;-80
2023/04/16 11:02:05;;;;;;;19.90;10.50;;;;;;;10.04;95.35;102558.19;6104279;23;20382;-81
2023/04/16 11:04:36;;;;;;;;;;;;;;;10.06;95.51;102554.38;6131478;23;20018;-81
2023/04/16 11:07:18;;;;;;;17.83;9.25;;;;;;;10.07;95.12;102547.91;6104319;23;19927;-81
2023/04/16 11:09:55;;;;;;;14.40;8.68;;;;;;;10.14;94.90;102553.19;6130613;23;20018;-80
2023/04/16 11:12:26;;;;;;;17.35;9.55;;;;;;;10.15;94.40;102554.69;6130682;23;20019;-80
2023/04/16 11:14:57;;;;;;;15.27;8.98;;;;;;;10.19;94.25;102552.75;6104779;23;20090;-80
2023/04/16 11:17:28;;;;;;;12.13;8.47;;;;;;;10.30;94.72;102550.81;6131232;23;20022;-81
2023/04/16 11:19:55;;;;;;;19.15;9.27;;;;;;;10.39;94.05;102556.44;6130122;23;20029;-80
2023/04/16 11:22:25;;;;;;;17.88;9.20;;;;;;;10.40;92.99;102546.53;6130568;23;20014;-80